Terminal Aerodrome Forecast
Issued by NWS Cleveland, OH

Home | Current Version | Previous Version | Graphics & Text | Print | Product List | Glossary Off
Versions: 1 2 3 4 5 6 7 8 9 10 11 12 13 14 15 16 17 18 19 20 21 22 23 24 25

312
FTUS41 KCLE 170856 AAA
TAFCLE
TAF AMD
KCLE 170856Z 1709/1812 36004KT P6SM OVC025
     FM171600 17008KT P6SM OVC035
     FM172100 17012KT P6SM SCT035 BKN120
     FM180300 17014G22KT P6SM BKN025 OVC100=

USA.gov is the U.S. government's official web portal to all federal, state and local government web resources and services.